Time;durP1;ratioP1;P1;durP2;ratioP2;P2;SDS_P1;SDS_P2;PMS_P1;PMS_P2;Temp;Humidity;BMP_temperature;BMP_pressure;BME280_temperature;BME280_humidity;BME280_pressure;Samples;Min_cycle;Max_cycle;Signal;HPM_P1;HPM_P2
2021/04/17 00:02:10;;;;;;;7.30;6.43;;;7.70;99.90;;;;;;5071974;28;20174;-55
2021/04/17 00:04:38;;;;;;;7.80;7.00;;;;;;;;;;5073298;28;20250;-51
2021/04/17 00:07:05;;;;;;;7.93;6.97;;;7.70;99.90;;;;;;5073260;28;20186;-57
2021/04/17 00:09:31;;;;;;;7.87;6.73;;;;;;;;;;5074274;28;20257;-51
2021/04/17 00:12:04;;;;;;;7.77;6.97;;;7.70;99.90;;;;;;5074109;28;20186;-50
2021/04/17 00:14:34;;;;;;;7.93;6.97;;;7.70;99.90;;;;;;5074428;28;20220;-50
2021/04/17 00:17:00;;;;;;;7.80;7.00;;;7.70;99.90;;;;;;5074146;28;20193;-50
2021/04/17 00:19:25;;;;;;;7.93;7.10;;;7.60;99.90;;;;;;5073970;28;20209;-51
2021/04/17 00:21:51;;;;;;;8.13;7.33;;;7.60;99.90;;;;;;5073950;28;20186;-50
2021/04/17 00:24:17;;;;;;;7.87;7.07;;;7.60;99.90;;;;;;5073936;28;20175;-50
2021/04/17 00:26:42;;;;;;;8.37;7.37;;;7.60;99.90;;;;;;5073838;28;20581;-52
2021/04/17 00:29:09;;;;;;;8.30;7.47;;;7.60;99.90;;;;;;5072598;28;20225;-51
2021/04/17 00:31:36;;;;;;;9.10;8.10;;;7.30;99.90;;;;;;5073834;28;20174;-51
2021/04/17 00:34:02;;;;;;;7.83;7.00;;;7.70;99.90;;;;;;5072769;28;20232;-51
2021/04/17 00:36:27;;;;;;;7.70;6.90;;;7.60;99.90;;;;;;5073598;28;20669;-49
2021/04/17 00:38:53;;;;;;;7.63;6.83;;;7.30;99.90;;;;;;5073642;28;20281;-51
2021/04/17 00:41:19;;;;;;;7.60;6.80;;;7.60;99.90;;;;;;5073541;28;20178;-50
2021/04/17 00:43:44;;;;;;;8.10;7.17;;;7.50;99.90;;;;;;5073813;28;20515;-49
2021/04/17 00:46:11;;;;;;;7.97;7.17;;;7.50;99.90;;;;;;5072402;28;20213;-50
2021/04/17 00:48:40;;;;;;;7.97;7.13;;;7.40;99.90;;;;;;5073593;28;20174;-50
2021/04/17 00:51:06;;;;;;;7.03;6.33;;;7.40;99.90;;;;;;5072153;28;20296;-55
2021/04/17 00:53:31;;;;;;;7.37;6.63;;;7.40;99.90;;;;;;5072056;28;20247;-57
2021/04/17 00:55:57;;;;;;;8.23;7.37;;;7.40;99.90;;;;;;5072747;28;20551;-55
2021/04/17 00:58:22;;;;;;;7.13;6.33;;;7.40;99.90;;;;;;5072644;28;20234;-49
2021/04/17 01:00:48;;;;;;;8.10;7.30;;;7.40;99.90;;;;;;5072614;28;20178;-50
2021/04/17 01:03:38;;;;;;;7.40;6.60;;;7.40;99.90;;;;;;5072567;28;20208;-49
2021/04/17 01:06:22;;;;;;;7.20;6.50;;;7.40;99.90;;;;;;5072885;28;20198;-57
2021/04/17 01:08:51;;;;;;;7.17;6.47;;;7.40;99.90;;;;;;5073714;28;20292;-51
2021/04/17 01:11:24;;;;;;;7.73;6.93;;;7.40;99.90;;;;;;5073351;28;20224;-50
2021/04/17 01:13:51;;;;;;;7.10;6.40;;;7.30;99.90;;;;;;5073461;28;20197;-49
2021/04/17 01:16:18;;;;;;;7.47;6.67;;;7.30;99.90;;;;;;5073479;28;20205;-53
2021/04/17 01:18:45;;;;;;;7.63;6.83;;;7.30;99.90;;;;;;5073247;28;20213;-48
2021/04/17 01:21:11;;;;;;;8.13;7.20;;;7.40;99.90;;;;;;5073183;28;20257;-49
2021/04/17 01:23:41;;;;;;;8.23;7.00;;;7.30;99.90;;;;;;5073622;28;20210;-50
2021/04/17 01:26:15;;;;;;;7.83;7.03;;;7.30;99.90;;;;;;5073557;28;20195;-51
2021/04/17 01:28:47;;;;;;;8.43;7.53;;;7.30;99.90;;;;;;5073414;28;20173;-50
2021/04/17 01:31:15;;;;;;;7.87;6.93;;;7.30;99.90;;;;;;5072975;28;20183;-57
2021/04/17 01:33:45;;;;;;;8.70;7.77;;;7.30;99.90;;;;;;5073228;28;20179;-52
2021/04/17 01:36:12;;;;;;;8.63;7.27;;;7.20;99.90;;;;;;5072972;28;20788;-51
2021/04/17 01:38:44;;;;;;;8.20;7.30;;;7.10;99.90;;;;;;5073074;28;20214;-51
2021/04/17 01:41:14;;;;;;;8.07;7.27;;;7.10;99.90;;;;;;5073054;28;20627;-50
2021/04/17 01:43:41;;;;;;;7.90;7.10;;;7.10;99.90;;;;;;5073304;28;20183;-51
2021/04/17 01:46:13;;;;;;;6.97;6.20;;;7.20;99.90;;;;;;5073883;28;20190;-53
2021/04/17 01:48:39;;;;;;;8.90;7.17;;;7.20;99.90;;;;;;5076847;28;20217;-52
2021/04/17 01:51:06;;;;;;;7.63;6.83;;;7.20;99.90;;;;;;5076669;28;20177;-51
2021/04/17 01:53:35;;;;;;;8.47;7.50;;;7.20;99.90;;;;;;5076717;28;20191;-54
2021/04/17 01:56:01;;;;;;;7.57;6.73;;;7.20;99.90;;;;;;5076487;28;20209;-56
2021/04/17 01:58:30;;;;;;;7.77;6.63;;;7.20;99.90;;;;;;5076479;28;20530;-49
2021/04/17 02:00:57;;;;;;;7.73;6.93;;;7.20;99.90;;;;;;5076447;28;20201;-55
2021/04/17 02:03:24;;;;;;;7.20;6.50;;;7.20;99.90;;;;;;5076672;28;20526;-54
2021/04/17 02:05:50;;;;;;;8.10;7.30;;;7.30;99.90;;;;;;5076569;28;20190;-48
2021/04/17 02:08:17;;;;;;;8.40;7.07;;;7.30;99.90;;;;;;5076412;28;20542;-49
2021/04/17 02:10:43;;;;;;;8.00;6.10;;;7.30;99.90;;;;;;5076120;28;20174;-51
2021/04/17 02:13:10;;;;;;;7.70;6.90;;;7.30;99.90;;;;;;5076281;28;20220;-49
2021/04/17 02:15:36;;;;;;;8.10;7.30;;;7.30;99.90;;;;;;5076377;28;20205;-49
2021/04/17 02:18:09;;;;;;;7.50;6.73;;;7.20;99.90;;;;;;5076345;28;20177;-54
2021/04/17 02:20:42;;;;;;;9.07;7.07;;;7.20;99.90;;;;;;5076064;28;20182;-51
2021/04/17 02:23:10;;;;;;;7.97;7.10;;;7.20;99.90;;;;;;5076172;28;20178;-49
2021/04/17 02:25:36;;;;;;;7.90;7.10;;;7.20;99.90;;;;;;5076005;28;20675;-48
2021/04/17 02:28:02;;;;;;;8.63;6.90;;;7.20;99.90;;;;;;5076057;28;20206;-53
2021/04/17 02:30:27;;;;;;;7.47;6.67;;;7.20;99.90;;;;;;5076516;28;20210;-50
2021/04/17 02:32:58;;;;;;;8.53;7.63;;;7.10;99.90;;;;;;5075981;28;20530;-53
2021/04/17 02:35:23;;;;;;;7.30;6.60;;;6.80;99.90;;;;;;5075744;28;20182;-52
2021/04/17 02:37:49;;;;;;;7.93;7.00;;;6.80;99.90;;;;;;5075812;28;20170;-57
2021/04/17 02:40:15;;;;;;;7.63;6.83;;;6.90;99.90;;;;;;5076133;28;20617;-52
2021/04/17 02:42:40;;;;;;;8.13;7.33;;;6.90;99.90;;;;;;5075631;28;20182;-49
2021/04/17 02:45:06;;;;;;;7.97;7.17;;;6.90;99.90;;;;;;5075827;28;20178;-51
2021/04/17 02:47:32;;;;;;;7.93;7.13;;;6.90;99.90;;;;;;5075730;28;20187;-53
2021/04/17 02:49:57;;;;;;;8.47;7.50;;;7.00;99.90;;;;;;5075681;28;20220;-57
2021/04/17 02:52:23;;;;;;;8.63;7.30;;;6.90;99.90;;;;;;5075422;28;20227;-49
2021/04/17 02:54:49;;;;;;;8.00;7.20;;;6.80;99.90;;;;;;5075637;28;20174;-51
2021/04/17 02:57:14;;;;;;;9.40;7.53;;;6.90;99.90;;;;;;5075454;28;20194;-48
2021/04/17 02:59:40;;;;;;;9.60;7.57;;;6.90;99.90;;;;;;5075363;28;20752;-50
2021/04/17 03:02:06;;;;;;;9.03;8.00;;;6.90;99.90;;;;;;5075160;28;20174;-50
2021/04/17 03:04:31;;;;;;;9.20;8.03;;;6.90;99.90;;;;;;5075427;28;20167;-49
2021/04/17 03:06:57;;;;;;;8.73;7.83;;;6.90;99.90;;;;;;5075136;28;20198;-50
2021/04/17 03:09:22;;;;;;;8.03;7.23;;;6.90;99.90;;;;;;5075388;28;20174;-49
2021/04/17 03:11:48;;;;;;;8.83;7.80;;;6.90;99.90;;;;;;5074993;28;20627;-56
2021/04/17 03:14:14;;;;;;;8.13;7.33;;;6.70;99.90;;;;;;5074947;28;20186;-52
2021/04/17 03:16:40;;;;;;;9.20;7.80;;;6.80;99.90;;;;;;5074949;28;20354;-50
2021/04/17 03:19:05;;;;;;;7.83;7.00;;;6.80;99.90;;;;;;5075058;28;20197;-52
2021/04/17 03:21:31;;;;;;;8.03;7.23;;;9.00;99.90;;;;;;5074983;28;20170;-52
2021/04/17 03:23:56;;;;;;;8.33;7.53;;;6.90;99.90;;;;;;5024084;28;20672;-56
2021/04/17 03:26:22;;;;;;;8.50;7.70;;;6.90;99.90;;;;;;5075248;28;20191;-49
2021/04/17 03:28:48;;;;;;;8.23;7.43;;;6.80;99.90;;;;;;5075006;28;20269;-57
2021/04/17 03:31:13;;;;;;;8.70;7.80;;;6.90;99.90;;;;;;5075037;28;20649;-51
2021/04/17 03:33:39;;;;;;;8.57;7.67;;;6.80;99.90;;;;;;5074915;28;20228;-54
2021/04/17 03:36:05;;;;;;;9.30;7.57;;;6.80;99.90;;;;;;5074626;28;20198;-51
2021/04/17 03:38:31;;;;;;;8.00;7.13;;;6.80;99.90;;;;;;5074838;28;20209;-49
2021/04/17 03:40:56;;;;;;;8.77;7.87;;;6.80;99.90;;;;;;5074660;28;20178;-50
2021/04/17 03:43:22;;;;;;;8.77;7.70;;;6.70;99.90;;;;;;5073671;28;20205;-49
2021/04/17 03:45:48;;;;;;;7.97;7.17;;;;;;;;;;5074063;28;20194;-54
2021/04/17 03:48:14;;;;;;;8.40;7.50;;;6.40;99.90;;;;;;5074555;28;20224;-48
2021/04/17 03:50:40;;;;;;;7.70;6.73;;;6.70;99.90;;;;;;5073631;28;20209;-49
2021/04/17 03:53:05;;;;;;;8.67;7.47;;;6.60;99.90;;;;;;5074523;28;20178;-48
2021/04/17 03:55:31;;;;;;;9.17;7.50;;;6.60;99.90;;;;;;5074329;28;20198;-48
2021/04/17 03:57:57;;;;;;;9.03;8.07;;;6.60;99.90;;;;;;5074589;28;20194;-49
2021/04/17 04:00:23;;;;;;;8.77;7.83;;;6.60;99.90;;;;;;5074302;28;20281;-50
2021/04/17 04:02:49;;;;;;;8.90;7.63;;;6.60;99.90;;;;;;5073977;28;20252;-52
2021/04/17 04:05:15;;;;;;;8.63;7.73;;;6.50;99.90;;;;;;5073914;28;20257;-53
2021/04/17 04:07:41;;;;;;;8.43;7.53;;;6.40;99.90;;;;;;5059438;28;20198;-52
2021/04/17 04:10:09;;;;;;;8.30;7.50;;;6.30;99.90;;;;;;5065513;28;20186;-51
2021/04/17 04:12:34;;;;;;;8.30;7.40;;;6.40;99.90;;;;;;5054151;28;20247;-48
2021/04/17 04:15:00;;;;;;;8.93;8.03;;;6.50;99.90;;;;;;5064697;28;20213;-50
2021/04/17 04:17:26;;;;;;;8.80;7.90;;;6.50;99.90;;;;;;5061983;28;20201;-51
2021/04/17 04:19:52;;;;;;;8.47;7.57;;;6.60;99.90;;;;;;5059029;28;20206;-57
2021/04/17 04:22:17;;;;;;;8.70;7.80;;;6.70;99.90;;;;;;5060177;28;20199;-49
2021/04/17 04:24:43;;;;;;;9.67;7.40;;;6.70;99.90;;;;;;5055365;28;20179;-50
2021/04/17 04:27:08;;;;;;;8.43;7.53;;;6.70;99.90;;;;;;5061071;28;20312;-51
2021/04/17 04:29:34;;;;;;;8.33;7.53;;;6.70;99.90;;;;;;5064098;28;20174;-49
2021/04/17 04:31:59;;;;;;;9.17;7.83;;;6.70;99.90;;;;;;5053802;28;20240;-55
2021/04/17 04:34:25;;;;;;;8.47;7.57;;;6.70;99.90;;;;;;5059084;28;20190;-51
2021/04/17 04:36:51;;;;;;;9.20;8.20;;;6.70;99.90;;;;;;5073608;28;20222;-54
2021/04/17 04:39:16;;;;;;;9.67;8.40;;;6.70;99.90;;;;;;5058994;28;20214;-48
2021/04/17 04:41:42;;;;;;;8.47;7.67;;;6.80;99.90;;;;;;5053508;28;20504;-52
2021/04/17 04:44:08;;;;;;;10.93;8.80;;;6.80;99.90;;;;;;5053856;28;20171;-48
2021/04/17 04:46:34;;;;;;;9.20;8.30;;;6.80;99.90;;;;;;5053741;28;20222;-54
2021/04/17 04:48:59;;;;;;;8.97;8.07;;;6.80;99.90;;;;;;5053922;28;20175;-49
2021/04/17 04:51:26;;;;;;;8.67;7.77;;;6.50;99.90;;;;;;5053798;28;20244;-56
2021/04/17 04:53:52;;;;;;;9.33;8.10;;;6.60;99.90;;;;;;5053625;28;20179;-57
2021/04/17 04:56:18;;;;;;;9.43;8.43;;;6.50;99.90;;;;;;5053765;28;20214;-49
2021/04/17 04:58:43;;;;;;;10.63;8.80;;;6.60;99.90;;;;;;5053519;28;20236;-49
2021/04/17 05:01:09;;;;;;;10.50;8.60;;;6.50;99.90;;;;;;5053161;28;20179;-53
2021/04/17 05:03:34;;;;;;;9.37;8.37;;;6.50;99.90;;;;;;5053468;28;20167;-57
2021/04/17 05:06:00;;;;;;;9.90;8.90;;;6.50;99.90;;;;;;5053595;28;20305;-55
2021/04/17 05:08:25;;;;;;;10.27;8.67;;;6.40;99.90;;;;;;5053657;28;20534;-49
2021/04/17 05:10:51;;;;;;;9.17;8.27;;;6.40;99.90;;;;;;5053667;28;20167;-53
2021/04/17 05:13:16;;;;;;;9.27;8.23;;;6.40;99.90;;;;;;5053395;28;20651;-49
2021/04/17 05:15:42;;;;;;;9.10;8.20;;;6.40;99.90;;;;;;5053323;28;20198;-49
2021/04/17 05:18:08;;;;;;;9.53;8.53;;;6.50;99.90;;;;;;5060891;28;20181;-48
2021/04/17 05:20:33;;;;;;;9.37;8.20;;;6.40;99.90;;;;;;5073477;28;20211;-54
2021/04/17 05:22:59;;;;;;;8.73;7.90;;;;;;;;;;5076915;28;20178;-53
2021/04/17 05:25:25;;;;;;;9.37;8.33;;;7.00;99.90;;;;;;5066934;28;20183;-50
2021/04/17 05:27:50;;;;;;;9.67;8.67;;;6.90;99.90;;;;;;5073388;28;20567;-56
2021/04/17 05:30:16;;;;;;;10.37;9.13;;;7.30;99.90;;;;;;5073706;28;20182;-49
2021/04/17 05:32:42;;;;;;;9.43;8.20;;;7.10;99.90;;;;;;5056447;28;20631;-49
2021/04/17 05:35:09;;;;;;;9.40;8.40;;;7.00;99.90;;;;;;5057168;28;20232;-51
2021/04/17 05:37:34;;;;;;;9.37;8.37;;;7.10;99.90;;;;;;5056916;28;20219;-52
2021/04/17 05:40:00;;;;;;;9.17;8.07;;;7.20;99.90;;;;;;5067683;28;20237;-50
2021/04/17 05:42:25;;;;;;;9.67;8.63;;;7.30;99.90;;;;;;5094247;28;20170;-48
2021/04/17 05:44:51;;;;;;;10.30;9.27;;;7.40;99.90;;;;;;5075456;28;20183;-52
2021/04/17 05:47:16;;;;;;;9.70;8.67;;;7.50;99.90;;;;;;5076731;28;20258;-49
2021/04/17 05:49:42;;;;;;;10.17;8.90;;;7.20;99.90;;;;;;5075591;28;20638;-51
2021/04/17 05:52:07;;;;;;;9.43;8.53;;;7.30;99.90;;;;;;5076543;28;20171;-50
2021/04/17 05:54:33;;;;;;;10.13;9.13;;;7.20;99.90;;;;;;5074112;28;20223;-48
2021/04/17 05:56:58;;;;;;;11.10;9.90;;;6.70;99.90;;;;;;5065298;28;20523;-48
2021/04/17 05:59:24;;;;;;;10.90;9.80;;;6.50;99.90;;;;;;5076226;28;20182;-50
2021/04/17 06:01:50;;;;;;;10.73;9.63;;;6.40;99.90;;;;;;5060140;28;20627;-57
2021/04/17 06:04:15;;;;;;;10.30;9.17;;;6.00;99.90;;;;;;5056351;28;20168;-52
2021/04/17 06:06:41;;;;;;;10.97;9.87;;;6.10;99.90;;;;;;5055125;28;20195;-49
2021/04/17 06:09:07;;;;;;;10.70;9.53;;;6.00;99.90;;;;;;5066051;28;20649;-55
2021/04/17 06:11:33;;;;;;;10.40;9.27;;;;;;;;;;5067530;28;20183;-51
2021/04/17 06:13:59;;;;;;;10.30;9.30;;;6.10;99.90;;;;;;5069628;28;20565;-51
2021/04/17 06:16:24;;;;;;;12.10;9.90;;;6.00;99.90;;;;;;5069132;28;20225;-53
2021/04/17 06:18:50;;;;;;;11.67;10.47;;;6.10;99.90;;;;;;5078413;28;20210;-52
2021/04/17 06:21:16;;;;;;;10.73;9.63;;;;;;;;;;5086163;28;20177;-49
2021/04/17 06:23:41;;;;;;;11.23;9.87;;;6.00;99.90;;;;;;5095992;28;20543;-49
2021/04/17 06:26:07;;;;;;;10.87;9.77;;;6.10;99.90;;;;;;5063906;28;20198;-50
2021/04/17 06:28:33;;;;;;;12.80;11.37;;;6.10;99.90;;;;;;5061223;28;20179;-53
2021/04/17 06:30:59;;;;;;;11.50;10.30;;;5.90;99.90;;;;;;5060408;28;20191;-52
2021/04/17 06:33:25;;;;;;;11.93;10.43;;;5.90;99.90;;;;;;5071538;28;20710;-51
2021/04/17 06:35:51;;;;;;;12.73;10.47;;;5.90;99.90;;;;;;5054847;28;20195;-57
2021/04/17 06:38:16;;;;;;;12.67;11.00;;;5.90;99.90;;;;;;5054416;28;20179;-50
2021/04/17 06:40:43;;;;;;;11.27;10.07;;;5.90;99.90;;;;;;5055723;28;20203;-49
2021/04/17 06:43:09;;;;;;;11.40;10.17;;;6.00;99.90;;;;;;5071934;28;20171;-49
2021/04/17 06:45:38;;;;;;;11.87;10.47;;;6.10;99.90;;;;;;5074493;28;20194;-51
2021/04/17 06:48:10;;;;;;;12.40;11.10;;;6.20;99.90;;;;;;5071552;28;20308;-50
2021/04/17 06:50:38;;;;;;;11.77;9.77;;;6.20;99.90;;;;;;5074683;28;20163;-49
2021/04/17 06:53:07;;;;;;;13.13;9.67;;;6.20;99.90;;;;;;5062714;28;20214;-53
2021/04/17 06:55:33;;;;;;;12.20;10.40;;;6.30;99.90;;;;;;5071069;28;20205;-48
2021/04/17 06:58:00;;;;;;;11.70;10.50;;;6.30;99.90;;;;;;5068157;28;20171;-49
2021/04/17 07:00:26;;;;;;;10.87;9.77;;;6.40;99.90;;;;;;5070564;28;20199;-50
2021/04/17 07:02:52;;;;;;;12.37;11.17;;;6.50;99.90;;;;;;5069240;28;20176;-49
2021/04/17 07:05:17;;;;;;;11.93;10.73;;;6.50;99.90;;;;;;5054610;28;20199;-53
2021/04/17 07:07:43;;;;;;;10.77;9.70;;;6.70;99.90;;;;;;5055364;28;20513;-50
2021/04/17 07:10:09;;;;;;;11.57;9.60;;;6.80;99.90;;;;;;5054437;28;20246;-55
2021/04/17 07:12:35;;;;;;;11.07;9.67;;;6.90;99.90;;;;;;5060670;28;20198;-50
2021/04/17 07:15:07;;;;;;;11.17;10.07;;;7.10;99.90;;;;;;5066462;28;20639;-51
2021/04/17 07:17:34;;;;;;;10.10;9.00;;;7.30;99.90;;;;;;5063599;28;20255;-55
2021/04/17 07:20:03;;;;;;;9.73;8.73;;;7.30;99.90;;;;;;5059457;28;20210;-52
2021/04/17 07:22:30;;;;;;;10.57;9.43;;;7.60;99.90;;;;;;5073880;28;20262;-50
2021/04/17 07:25:17;;;;;;;11.07;9.97;;;7.20;99.90;;;;;;5062744;28;20182;-61
2021/04/17 07:27:42;;;;;;;9.93;8.87;;;6.90;99.90;;;;;;5060172;28;20695;-49
2021/04/17 07:30:14;;;;;;;11.60;10.17;;;7.10;99.90;;;;;;5059026;28;20266;-50
2021/04/17 07:33:02;;;;;;;12.40;10.10;;;7.00;99.90;;;;;;5068890;28;20554;-49
2021/04/17 07:35:34;;;;;;;11.53;10.00;;;7.20;99.90;;;;;;5041283;28;20248;-49
2021/04/17 07:38:17;;;;;;;11.83;10.57;;;6.90;99.90;;;;;;5066027;28;20194;-52
2021/04/17 07:40:58;;;;;;;10.80;9.23;;;7.20;99.90;;;;;;5055505;28;20206;-54
2021/04/17 07:43:42;;;;;;;10.93;9.77;;;7.10;99.90;;;;;;5069113;28;20166;-57
2021/04/17 07:46:08;;;;;;;11.93;10.73;;;7.00;99.90;;;;;;5057110;28;20213;-50
2021/04/17 07:48:33;;;;;;;11.30;10.13;;;7.10;99.90;;;;;;5056255;28;20519;-51
2021/04/17 07:50:59;;;;;;;13.20;11.03;;;7.20;99.90;;;;;;5057921;28;20225;-50
2021/04/17 07:53:32;;;;;;;12.27;9.73;;;7.30;99.90;;;;;;5062077;28;20752;-52
2021/04/17 07:56:22;;;;;;;11.23;9.50;;;7.20;99.90;;;;;;5067315;28;20546;-53
2021/04/17 07:58:50;;;;;;;11.03;9.80;;;7.10;99.90;;;;;;5060976;28;20213;-52
2021/04/17 08:01:16;;;;;;;11.57;10.37;;;7.00;99.90;;;;;;5059354;28;20189;-53
2021/04/17 08:03:43;;;;;;;12.93;10.63;;;6.90;99.90;;;;;;5079187;28;20174;-48
2021/04/17 08:06:10;;;;;;;10.73;9.60;;;6.90;99.90;;;;;;5057374;28;20195;-52
2021/04/17 08:08:36;;;;;;;10.23;9.00;;;6.80;99.90;;;;;;5054449;28;20749;-50
2021/04/17 08:11:02;;;;;;;10.07;9.03;;;6.80;99.90;;;;;;5057278;28;20182;-53
2021/04/17 08:13:29;;;;;;;11.00;9.80;;;6.70;99.90;;;;;;5061706;28;20250;-51
2021/04/17 08:15:55;;;;;;;12.73;10.10;;;6.80;99.90;;;;;;5054164;28;20194;-53
2021/04/17 08:18:21;;;;;;;12.10;10.27;;;7.30;99.90;;;;;;5052812;28;20171;-50
2021/04/17 08:20:46;;;;;;;11.53;9.50;;;7.00;99.90;;;;;;5069557;28;20247;-49
2021/04/17 08:23:13;;;;;;;11.17;10.00;;;7.20;99.90;;;;;;5063755;28;20542;-48
2021/04/17 08:25:38;;;;;;;10.10;9.03;;;6.90;99.90;;;;;;5063197;28;20273;-55
2021/04/17 08:28:17;;;;;;;11.20;9.10;;;7.20;99.90;;;;;;5071124;28;20278;-53
2021/04/17 08:30:42;;;;;;;10.80;9.70;;;7.10;99.90;;;;;;5056712;28;20186;-51
2021/04/17 08:33:16;;;;;;;11.27;9.60;;;7.20;99.90;;;;;;5062472;28;20174;-49
2021/04/17 08:35:43;;;;;;;10.33;9.23;;;7.60;99.90;;;;;;5073183;28;20198;-50
2021/04/17 08:38:13;;;;;;;13.07;10.17;;;7.30;99.90;;;;;;5071565;28;20649;-52
2021/04/17 08:40:38;;;;;;;12.00;9.90;;;7.10;99.90;;;;;;5066897;28;20213;-49
2021/04/17 08:43:05;;;;;;;10.70;9.60;;;7.50;99.90;;;;;;5065703;28;20182;-52
2021/04/17 08:45:31;;;;;;;11.27;10.10;;;7.10;99.90;;;;;;5058539;28;20210;-53
2021/04/17 08:48:01;;;;;;;11.53;9.43;;;7.40;99.90;;;;;;5072616;28;20178;-55
2021/04/17 08:50:32;;;;;;;10.30;8.97;;;7.40;99.90;;;;;;5068531;28;20175;-58
2021/04/17 08:53:00;;;;;;;10.77;9.67;;;7.50;99.90;;;;;;5061845;28;20202;-53
2021/04/17 08:55:44;;;;;;;10.47;9.37;;;7.70;99.90;;;;;;5070290;28;20204;-50
2021/04/17 08:58:21;;;;;;;10.03;8.93;;;7.80;99.90;;;;;;5046893;28;20186;-54
2021/04/17 09:00:53;;;;;;;12.13;9.50;;;7.80;99.90;;;;;;5069618;28;21750;-51
2021/04/17 09:03:45;;;;;;;9.87;8.87;;;7.80;99.90;;;;;;5065404;28;20527;-51
2021/04/17 09:06:23;;;;;;;10.77;9.27;;;8.20;99.90;;;;;;5088424;28;20193;-55
2021/04/17 09:09:27;;;;;;;10.03;8.90;;;7.70;99.90;;;;;;5096598;28;20521;-50
2021/04/17 09:11:55;;;;;;;9.77;8.77;;;8.10;99.90;;;;;;5075168;28;20185;-53
2021/04/17 09:14:27;;;;;;;9.93;8.93;;;8.40;99.90;;;;;;5058261;28;20512;-49
2021/04/17 09:16:54;;;;;;;10.73;9.63;;;8.60;99.90;;;;;;5057271;28;20563;-54
2021/04/17 09:19:38;;;;;;;10.70;9.60;;;8.80;99.90;;;;;;5058185;28;20244;-57
2021/04/17 09:22:24;;;;;;;10.97;9.63;;;9.10;99.90;;;;;;5059944;28;20183;-48
2021/04/17 09:24:51;;;;;;;10.30;9.20;;;;;;;;;;5065005;28;20179;-55
2021/04/17 09:27:30;;;;;;;10.37;9.17;;;9.00;99.90;;;;;;5070615;28;20207;-59
2021/04/17 09:30:11;;;;;;;10.47;9.30;;;9.10;99.90;;;;;;5069885;28;20232;-55
2021/04/17 09:32:45;;;;;;;9.57;8.57;;;9.20;99.90;;;;;;5056841;28;20237;-52
2021/04/17 09:35:18;;;;;;;9.93;8.93;;;9.30;99.90;;;;;;5072796;28;20183;-54
2021/04/17 09:37:46;;;;;;;10.43;9.33;;;9.10;99.90;;;;;;5057629;28;20190;-50
2021/04/17 09:40:12;;;;;;;9.77;8.77;;;8.90;99.90;;;;;;5069752;28;20194;-52
2021/04/17 09:42:40;;;;;;;10.80;8.83;;;8.80;99.90;;;;;;5066628;28;20269;-56
2021/04/17 09:45:11;;;;;;;9.13;8.10;;;8.70;99.90;;;;;;5075513;28;20206;-49
2021/04/17 09:47:57;;;;;;;9.90;8.90;;;8.50;99.90;;;;;;5065317;28;20225;-53
2021/04/17 09:50:24;;;;;;;10.50;8.00;;;8.40;99.90;;;;;;5055612;28;20642;-54
2021/04/17 09:52:51;;;;;;;8.30;7.40;;;8.40;99.90;;;;;;5057549;28;20174;-54
2021/04/17 09:55:16;;;;;;;11.40;8.93;;;8.60;99.90;;;;;;5055666;28;20171;-52
2021/04/17 09:57:47;;;;;;;10.10;8.63;;;8.40;99.90;;;;;;5056132;28;20178;-50
2021/04/17 10:00:13;;;;;;;10.13;9.03;;;8.50;99.90;;;;;;5056314;28;20198;-53
2021/04/17 10:02:44;;;;;;;11.10;8.97;;;8.50;99.90;;;;;;5062368;28;20214;-52
2021/04/17 10:05:14;;;;;;;9.40;8.40;;;8.70;99.90;;;;;;5057561;28;20215;-47
2021/04/17 10:07:40;;;;;;;9.60;8.60;;;8.80;99.90;;;;;;5054856;28;20179;-50
2021/04/17 10:10:07;;;;;;;9.43;8.43;;;8.60;99.90;;;;;;5056252;28;20623;-55
2021/04/17 10:12:46;;;;;;;9.50;8.47;;;8.40;99.90;;;;;;5056242;28;20175;-51
2021/04/17 10:15:32;;;;;;;9.77;8.77;;;8.30;99.90;;;;;;5056546;28;20171;-55
2021/04/17 10:17:59;;;;;;;12.03;8.97;;;8.30;99.90;;;;;;5056756;28;20630;-50
2021/04/17 10:20:25;;;;;;;9.77;8.67;;;8.20;99.90;;;;;;5056310;28;20211;-51
2021/04/17 10:22:55;;;;;;;9.80;8.70;;;8.20;99.90;;;;;;5055895;28;20262;-53
2021/04/17 10:25:38;;;;;;;9.50;8.47;;;8.30;99.90;;;;;;5056259;28;20473;-50
2021/04/17 10:28:22;;;;;;;11.27;8.97;;;8.20;99.90;;;;;;5056558;28;20164;-56
2021/04/17 10:30:55;;;;;;;9.97;8.90;;;8.20;99.90;;;;;;5055719;28;20520;-48
2021/04/17 10:33:24;;;;;;;10.73;9.13;;;8.40;99.90;;;;;;5056077;28;20202;-51
2021/04/17 10:35:51;;;;;;;10.63;9.53;;;8.50;99.90;;;;;;5055745;28;20687;-52
2021/04/17 10:38:31;;;;;;;9.73;8.73;;;8.60;99.90;;;;;;5055977;28;20276;-54
2021/04/17 10:40:59;;;;;;;10.60;9.50;;;8.60;99.90;;;;;;5055502;28;20179;-51
2021/04/17 10:43:25;;;;;;;10.33;8.80;;;8.70;99.90;;;;;;5056266;28;20199;-49
2021/04/17 10:46:00;;;;;;;9.50;8.50;;;8.80;99.90;;;;;;5055890;28;20241;-49
2021/04/17 10:48:27;;;;;;;10.37;9.27;;;9.00;99.90;;;;;;5056056;28;20174;-50
2021/04/17 10:51:06;;;;;;;10.00;8.80;;;9.10;99.90;;;;;;5055847;28;20168;-48
2021/04/17 10:53:37;;;;;;;10.37;9.27;;;9.20;99.90;;;;;;5055558;28;20202;-51
2021/04/17 10:56:14;;;;;;;11.10;9.67;;;9.30;99.90;;;;;;5055641;28;20191;-51
2021/04/17 10:58:41;;;;;;;10.47;8.80;;;9.20;99.90;;;;;;5037951;28;20210;-48
2021/04/17 11:01:22;;;;;;;10.17;9.07;;;9.10;99.90;;;;;;5055606;28;20205;-48
2021/04/17 11:03:53;;;;;;;9.63;8.63;;;9.10;99.90;;;;;;5055739;28;20171;-52
2021/04/17 11:06:22;;;;;;;10.30;9.20;;;9.20;99.90;;;;;;5055266;28;20706;-50
2021/04/17 11:09:02;;;;;;;9.73;8.73;;;9.20;99.90;;;;;;5055373;28;20650;-49
2021/04/17 11:11:28;;;;;;;10.90;8.93;;;9.20;99.90;;;;;;5053739;28;20669;-52
2021/04/17 11:14:00;;;;;;;9.87;8.87;;;9.30;99.90;;;;;;5055667;28;20167;-50
2021/04/17 11:16:45;;;;;;;10.70;9.60;;;9.30;99.90;;;;;;5054359;28;20562;-49
2021/04/17 11:19:26;;;;;;;10.60;9.50;;;9.40;99.90;;;;;;5036175;28;20222;-50
2021/04/17 11:22:13;;;;;;;11.93;10.00;;;9.30;99.90;;;;;;5054871;28;20171;-50
2021/04/17 11:24:41;;;;;;;12.83;10.70;;;9.30;99.90;;;;;;5055045;28;20168;-50
2021/04/17 11:27:07;;;;;;;10.87;9.77;;;9.30;99.90;;;;;;5053824;28;20210;-48
2021/04/17 11:29:32;;;;;;;16.50;14.60;;;9.40;99.90;;;;;;5054892;28;20171;-53
2021/04/17 11:31:58;;;;;;;11.90;10.67;;;9.50;99.90;;;;;;5035818;28;20698;-48
2021/04/17 11:34:24;;;;;;;38.27;31.83;;;9.70;99.90;;;;;;5054998;28;20171;-48
2021/04/17 11:36:49;;;;;;;10.23;9.23;;;9.80;99.90;;;;;;5054784;28;20199;-52
2021/04/17 11:39:16;;;;;;;10.30;9.30;;;9.80;99.90;;;;;;5054571;28;20207;-57
2021/04/17 11:41:42;;;;;;;10.97;9.27;;;9.50;99.90;;;;;;5054395;28;20663;-48
2021/04/17 11:44:08;;;;;;;10.30;9.20;;;9.10;99.90;;;;;;5054654;28;20175;-52
2021/04/17 11:46:36;;;;;;;10.40;9.07;;;8.80;99.90;;;;;;5054588;28;20213;-52
2021/04/17 11:49:02;;;;;;;10.23;8.87;;;8.80;99.90;;;;;;5054676;28;20175;-49
2021/04/17 11:51:28;;;;;;;10.23;9.23;;;8.80;99.90;;;;;;5054480;28;20167;-51
2021/04/17 11:53:54;;;;;;;10.87;9.60;;;8.90;99.90;;;;;;5053582;28;20233;-56
2021/04/17 11:56:19;;;;;;;11.77;9.13;;;9.00;99.90;;;;;;5054671;28;20199;-57
2021/04/17 11:58:45;;;;;;;11.10;9.17;;;9.10;99.90;;;;;;5053803;28;20213;-51
2021/04/17 12:01:11;;;;;;;11.37;9.50;;;9.20;99.90;;;;;;5054048;28;20182;-52
2021/04/17 12:03:37;;;;;;;10.47;9.40;;;9.30;99.90;;;;;;5054361;28;20175;-53
2021/04/17 12:06:03;;;;;;;10.10;9.03;;;9.50;99.90;;;;;;5054095;28;20190;-53
2021/04/17 12:08:28;;;;;;;10.57;9.53;;;9.60;99.90;;;;;;5053868;28;20167;-50
2021/04/17 12:10:54;;;;;;;10.30;9.20;;;9.60;99.90;;;;;;5036294;28;20681;-52
2021/04/17 12:13:20;;;;;;;9.57;8.57;;;9.60;99.90;;;;;;5054399;28;20228;-49
2021/04/17 12:15:46;;;;;;;11.60;10.00;;;9.50;99.90;;;;;;5053960;28;20223;-48
2021/04/17 12:18:13;;;;;;;11.47;9.27;;;9.60;99.90;;;;;;5054546;28;20175;-50
2021/04/17 12:20:39;;;;;;;10.03;9.00;;;9.40;99.90;;;;;;5053873;28;20218;-52
2021/04/17 12:23:04;;;;;;;10.20;9.20;;;9.50;99.90;;;;;;5053804;28;20170;-48
2021/04/17 12:25:30;;;;;;;10.20;9.20;;;9.50;99.90;;;;;;5053880;28;20175;-50
2021/04/17 12:27:56;;;;;;;10.33;9.27;;;9.50;99.90;;;;;;5054192;28;20608;-50
2021/04/17 12:30:22;;;;;;;10.03;9.10;;;9.50;99.90;;;;;;5054050;28;20190;-56
2021/04/17 12:32:48;;;;;;;9.20;8.30;;;9.80;99.90;;;;;;5054120;28;20189;-52
2021/04/17 12:35:15;;;;;;;11.27;9.27;;;10.40;99.90;;;;;;5054288;28;20179;-52
2021/04/17 12:37:43;;;;;;;9.77;8.77;;;10.00;99.90;;;;;;5053741;28;20191;-51
2021/04/17 12:40:11;;;;;;;9.57;8.57;;;10.00;99.90;;;;;;5035988;28;20241;-50
2021/04/17 12:42:37;;;;;;;9.90;9.00;;;10.20;99.90;;;;;;5054001;28;20220;-50
2021/04/17 12:45:09;;;;;;;10.37;9.37;;;10.50;99.90;;;;;;5054142;28;20607;-48
2021/04/17 12:47:35;;;;;;;13.40;12.10;;;10.60;99.80;;;;;;5053694;28;20186;-50
2021/04/17 12:50:01;;;;;;;9.50;8.50;;;10.80;99.80;;;;;;5053790;28;20639;-52
2021/04/17 12:52:26;;;;;;;12.50;9.00;;;10.90;99.90;;;;;;5053524;28;20210;-49
2021/04/17 12:54:52;;;;;;;9.00;8.10;;;10.90;99.80;;;;;;5053992;28;20266;-50
2021/04/17 12:57:17;;;;;;;9.00;8.10;;;10.70;99.90;;;;;;5052811;28;20617;-55
2021/04/17 12:59:43;;;;;;;8.83;7.93;;;10.60;99.70;;;;;;5053463;28;20389;-53